Ameagle, West Virginia
Current Conditions -  °F | °C
As of 4:51 PM on Wednesday 28 Jan 2015 (Local Time) from KBKW Reporting Station
Clear Clear  
Wind Chill: 22°   Ceiling: Unl
Heat Index: 28°   Visibility: 10mi
Dew Point: 13°   Wind: 6mph
Humidity: 53%   Direction: 360°N
Pressure: 30.22"   Gusts: NA
Location:  37.95°N, 81.42°W
Report Text: KBKW 282151Z AUTO 36005KT 10SM CLR M02/M11 A3022 RMK AO2 SLP277 T10221106
Loading
Personal Weather Stations






























Interactive Weather Map New forecast layout! Learn more

10-Day Weather Forecast

Advertisements
Track Severe Weather on mobile